This is the latest recevied weather packets stored in our database for station/object K3HW. If no packets are shown the sender has not sent any weather packets the latest 10 day(s).
| Time | Temp. | Humidity | Pressure | Rain* | Wind** | Luminosity | Snow |
|---|---|---|---|---|---|---|---|
| 1777948430 | 16.67° C | 52% | 1013.7 hPa | 0 mm | - | 0 W/m² | - |
| 1777948128 | 16.67° C | 53% | 1014 hPa | 0 mm | - | 0 W/m² | - |
| 1777947824 | 16.11° C | 54% | 1013.9 hPa | 0 mm | - | 0 W/m² | - |
| 1777947522 | 16.67° C | 53% | 1013.7 hPa | 0 mm | - | 0 W/m² | - |
| 1777947218 | 17.22° C | 52% | 1013.9 hPa | 0 mm | - | 0 W/m² | - |
| 1777946914 | 17.22° C | 52% | 1014 hPa | 0 mm | - | 0 W/m² | - |
| 1777946610 | 17.22° C | 51% | 1013.9 hPa | 0 mm | - | 0 W/m² | - |
| 1777946307 | 16.67° C | 54% | 1013.6 hPa | 0 mm | - | 0 W/m² | - |
| 1777946004 | 16.67° C | 54% | 1013.9 hPa | 0 mm | - | 0 W/m² | - |
| 1777945701 | 16.67° C | 52% | 1013.9 hPa | 0 mm | - | 0 W/m² | - |
| 1777945398 | 16.67° C | 51% | 1014 hPa | 0 mm | - | 0 W/m² | - |
| 1777945094 | 16.11° C | 53% | 1013.9 hPa | 0 mm | - | 0 W/m² | - |
| 1777944792 | 15.56° C | 59% | 1014 hPa | 0 mm | - | 0 W/m² | - |
| 1777944490 | 15.56° C | 57% | 1014 hPa | 0 mm | - | 0 W/m² | - |
| 1777944188 | 15.56° C | 58% | 1014 hPa | 0 mm | - | 0 W/m² | - |
| 1777943883 | 15.56° C | 57% | 1014 hPa | 0 mm | - | 0 W/m² | - |
| 1777943580 | 15.56° C | 57% | 1013.6 hPa | 0 mm | - | 0 W/m² | - |
| 1777943276 | 16.11° C | 56% | 1013.7 hPa | 0 mm | - | 0 W/m² | - |
| 1777942972 | 16.67° C | 54% | 1013.7 hPa | 0 mm | - | 0 W/m² | - |
| 1777942668 | 16.67° C | 52% | 1013.4 hPa | 0 mm | - | 0 W/m² | - |
| 1777942366 | 16.67° C | 52% | 1013.4 hPa | 0 mm | - | 0 W/m² | - |
| 1777942063 | 17.22° C | 51% | 1013.5 hPa | 0 mm | - | 0 W/m² | - |
| 1777941759 | 17.78° C | 51% | 1013.3 hPa | 0 mm | - | 0 W/m² | - |
| 1777941456 | 17.78° C | 49% | 1013.5 hPa | 0 mm | - | 0 W/m² | - |
| 1777941154 | 18.33° C | 48% | 1013.4 hPa | 0 mm | - | 0 W/m² | - |
* Rain latest hour (hover to see other rain measurements)
** Current wind speed in m/s (hover to see current wind gust speed)